Time;durP1;ratioP1;P1;durP2;ratioP2;P2;SDS_P1;SDS_P2;PMS_P1;PMS_P2;Temp;Humidity;BMP_temperature;BMP_pressure;BME280_temperature;BME280_humidity;BME280_pressure;Samples;Min_cycle;Max_cycle;Signal;HPM_P1;HPM_P2
2023/03/19 00:02:15;;;;;;;2.47;2.10;;;10.40;99.90;;;;;;5091469;28;20264;-68
2023/03/19 00:04:41;;;;;;;5.63;2.20;;;10.40;99.90;;;;;;5091392;28;20210;-68
2023/03/19 00:07:06;;;;;;;10.63;2.50;;;10.50;99.90;;;;;;5091472;28;20648;-68
2023/03/19 00:09:32;;;;;;;2.53;2.00;;;10.50;99.90;;;;;;5091379;28;20208;-68
2023/03/19 00:11:57;;;;;;;2.33;2.07;;;10.50;99.90;;;;;;5091325;28;20528;-68
2023/03/19 00:14:23;;;;;;;3.10;1.97;;;10.40;99.90;;;;;;5089758;28;20296;-68
2023/03/19 00:16:49;;;;;;;5.10;2.40;;;10.40;99.90;;;;;;5091180;28;20588;-68
2023/03/19 00:19:15;;;;;;;8.20;2.30;;;10.40;99.90;;;;;;5091108;28;20171;-68
2023/03/19 00:21:41;;;;;;;5.17;2.90;;;10.30;99.90;;;;;;5089533;28;20440;-68
2023/03/19 00:24:07;;;;;;;1.90;1.63;;;10.20;99.90;;;;;;5090952;28;20727;-68
2023/03/19 00:26:33;;;;;;;8.23;2.60;;;10.20;99.90;;;;;;5091132;28;20780;-68
2023/03/19 00:29:00;;;;;;;6.60;2.80;;;10.20;99.90;;;;;;5091447;28;20415;-68
2023/03/19 00:31:27;;;;;;;5.53;1.97;;;10.20;99.90;;;;;;5091378;28;20831;-69
2023/03/19 00:33:56;;;;;;;5.10;2.27;;;10.20;99.90;;;;;;5091468;28;20835;-69
2023/03/19 00:36:22;;;;;;;5.37;2.03;;;10.10;99.90;;;;;;5089773;28;20502;-69
2023/03/19 00:38:47;;;;;;;9.70;2.50;;;10.10;99.90;;;;;;5090495;28;20787;-68
2023/03/19 00:41:16;;;;;;;3.10;2.27;;;10.20;99.90;;;;;;5091394;28;20501;-68
2023/03/19 00:43:41;;;;;;;9.33;2.90;;;10.20;99.90;;;;;;5089391;28;20759;-69
2023/03/19 00:46:07;;;;;;;7.20;2.30;;;10.20;99.90;;;;;;5090906;28;20421;-69
2023/03/19 00:48:33;;;;;;;4.33;2.60;;;10.20;99.90;;;;;;5090550;28;20176;-68
2023/03/19 00:51:06;;;;;;;4.20;2.00;;;10.20;99.90;;;;;;5090429;28;20578;-68
2023/03/19 00:53:35;;;;;;;3.47;2.80;;;10.20;99.90;;;;;;5072036;28;20210;-69
2023/03/19 00:56:00;;;;;;;9.83;2.40;;;10.20;99.90;;;;;;5090405;28;20423;-69
2023/03/19 00:58:26;;;;;;;6.50;2.27;;;10.20;99.90;;;;;;5090361;28;20815;-68
2023/03/19 01:00:53;;;;;;;7.37;2.50;;;10.20;99.90;;;;;;5090099;28;20296;-68
2023/03/19 01:03:19;;;;;;;4.60;2.37;;;10.20;99.90;;;;;;5090178;28;20182;-68
2023/03/19 01:05:47;;;;;;;2.27;1.90;;;10.20;99.90;;;;;;5088814;28;20470;-68
2023/03/19 01:08:13;;;;;;;3.70;1.73;;;10.20;99.90;;;;;;5090057;28;20424;-68
2023/03/19 01:10:38;;;;;;;4.33;2.00;;;10.30;99.90;;;;;;5090009;28;20451;-68
2023/03/19 01:13:04;;;;;;;4.67;2.10;;;10.30;99.90;;;;;;5089958;28;20188;-69
2023/03/19 01:15:30;;;;;;;4.73;2.20;;;10.30;99.90;;;;;;5088901;28;20500;-69
2023/03/19 01:17:55;;;;;;;5.10;2.37;;;10.30;99.90;;;;;;5088450;28;20190;-69
2023/03/19 01:20:22;;;;;;;3.13;2.17;;;10.40;99.90;;;;;;5089718;28;20368;-69
2023/03/19 01:22:49;;;;;;;3.93;2.03;;;10.40;99.90;;;;;;5089752;28;20236;-69
2023/03/19 01:25:15;;;;;;;6.27;2.60;;;10.40;99.90;;;;;;5087932;28;21028;-68
2023/03/19 01:27:41;;;;;;;5.40;2.27;;;10.40;99.90;;;;;;5089617;28;20512;-68
2023/03/19 01:30:08;;;;;;;9.03;2.27;;;10.50;99.90;;;;;;5089416;28;21078;-68
2023/03/19 01:32:33;;;;;;;5.60;2.27;;;10.40;99.90;;;;;;5089600;28;20188;-68
2023/03/19 01:34:59;;;;;;;3.17;1.90;;;10.40;99.90;;;;;;5089488;28;20428;-69
2023/03/19 01:37:24;;;;;;;2.90;1.90;;;10.40;99.90;;;;;;5089292;28;20200;-68
2023/03/19 01:39:50;;;;;;;7.90;2.70;;;10.50;99.90;;;;;;5089375;28;20223;-69
2023/03/19 01:42:16;;;;;;;8.83;2.30;;;10.50;99.90;;;;;;5087978;28;20191;-69
2023/03/19 01:44:43;;;;;;;5.73;2.47;;;10.50;99.90;;;;;;5089329;28;20806;-69
2023/03/19 01:47:24;;;;;;;4.30;1.80;;;10.60;99.90;;;;;;5089216;28;20749;-69
2023/03/19 01:49:55;;;;;;;2.70;2.03;;;10.90;98.70;;;;;;5089018;28;20433;-68
2023/03/19 01:52:23;;;;;;;3.50;2.10;;;11.00;98.30;;;;;;5088725;28;20419;-68
2023/03/19 01:54:49;;;;;;;5.27;1.93;;;11.10;93.10;;;;;;5089165;28;20422;-68
2023/03/19 01:57:15;;;;;;;5.93;2.67;;;11.20;92.50;;;;;;5089074;28;20483;-69
2023/03/19 01:59:45;;;;;;;7.27;2.30;;;11.30;93.20;;;;;;5089049;28;20584;-68
2023/03/19 02:02:28;;;;;;;6.90;2.70;;;11.30;92.80;;;;;;5088966;28;20630;-68
2023/03/19 02:04:59;;;;;;;5.03;2.50;;;11.30;93.00;;;;;;5088930;28;20477;-68
2023/03/19 02:07:26;;;;;;;3.67;2.13;;;11.30;92.90;;;;;;5089010;28;20405;-68
2023/03/19 02:09:52;;;;;;;4.00;2.40;;;11.30;93.50;;;;;;5088819;28;20438;-68
2023/03/19 02:12:18;;;;;;;5.47;2.57;;;11.30;94.10;;;;;;5088805;28;20423;-68
2023/03/19 02:14:44;;;;;;;2.57;1.97;;;11.30;94.00;;;;;;5088891;28;20421;-68
2023/03/19 02:17:10;;;;;;;3.83;2.13;;;11.30;94.20;;;;;;5088753;28;20645;-68
2023/03/19 02:20:12;;;;;;;4.47;2.47;;;11.30;95.10;;;;;;5087323;28;20232;-68
2023/03/19 02:22:59;;;;;;;4.70;1.70;;;11.30;94.90;;;;;;5088592;28;20427;-69
2023/03/19 02:25:38;;;;;;;4.73;2.23;;;11.30;95.50;;;;;;5088692;28;20987;-68
2023/03/19 02:28:06;;;;;;;5.43;2.77;;;11.20;96.30;;;;;;5088676;28;20444;-68
2023/03/19 02:30:33;;;;;;;6.67;2.90;;;11.20;98.20;;;;;;5088486;28;20457;-68
2023/03/19 02:32:58;;;;;;;3.43;1.70;;;11.20;99.90;;;;;;5087534;28;20772;-68
2023/03/19 02:35:26;;;;;;;3.50;2.53;;;11.10;99.90;;;;;;5088420;28;20423;-68
2023/03/19 02:37:51;;;;;;;3.07;1.97;;;11.10;99.90;;;;;;5087065;28;20240;-68
2023/03/19 02:40:26;;;;;;;5.53;2.40;;;11.20;99.90;;;;;;5088401;28;20486;-68
2023/03/19 02:42:51;;;;;;;8.93;2.10;;;11.20;99.90;;;;;;5088520;28;20493;-68
2023/03/19 02:45:17;;;;;;;2.30;1.93;;;11.20;99.90;;;;;;5069992;28;20506;-69
2023/03/19 02:47:43;;;;;;;3.07;1.93;;;11.30;99.90;;;;;;5088475;28;20184;-67
2023/03/19 02:50:09;;;;;;;4.40;2.77;;;11.20;99.90;;;;;;5088341;28;20443;-68
2023/03/19 02:52:35;;;;;;;4.23;2.60;;;11.20;99.90;;;;;;5088498;28;20272;-68
2023/03/19 02:55:01;;;;;;;3.37;2.70;;;11.10;99.90;;;;;;5088446;28;20574;-68
2023/03/19 02:57:26;;;;;;;3.00;2.67;;;11.00;99.90;;;;;;5088468;28;20459;-68
2023/03/19 02:59:52;;;;;;;8.00;2.37;;;11.00;99.90;;;;;;5087165;28;20213;-68
2023/03/19 03:02:18;;;;;;;4.03;2.40;;;10.90;99.90;;;;;;5090241;28;20659;-68
2023/03/19 03:04:44;;;;;;;2.77;2.13;;;10.80;99.90;;;;;;5092526;28;20240;-68
2023/03/19 03:07:10;;;;;;;9.50;2.40;;;10.80;99.90;;;;;;5092436;28;20481;-69
2023/03/19 03:09:36;;;;;;;7.37;2.50;;;10.40;99.90;;;;;;5092281;28;20490;-68
2023/03/19 03:12:02;;;;;;;5.93;2.80;;;10.30;99.90;;;;;;5092680;28;20925;-68
2023/03/19 03:17:20;;;;;;;6.07;3.30;;;10.00;99.90;;;;;;5092561;28;21108;-68
2023/03/19 03:19:47;;;;;;;3.60;3.17;;;9.80;99.90;;;;;;5092208;28;20452;-68
2023/03/19 03:22:12;;;;;;;5.27;3.27;;;9.80;99.90;;;;;;5092165;28;20231;-68
2023/03/19 03:24:38;;;;;;;8.17;3.80;;;9.80;99.90;;;;;;5092567;28;20861;-68
2023/03/19 03:27:04;;;;;;;5.17;2.90;;;9.70;99.90;;;;;;5092090;28;20261;-68
2023/03/19 03:29:30;;;;;;;4.83;3.10;;;9.70;99.90;;;;;;5092853;28;20695;-69
2023/03/19 03:31:56;;;;;;;4.30;2.87;;;9.70;99.90;;;;;;5090821;28;20191;-69
2023/03/19 03:34:22;;;;;;;9.13;3.00;;;9.70;99.90;;;;;;5092840;28;20423;-68
2023/03/19 03:36:47;;;;;;;4.87;2.97;;;9.70;99.90;;;;;;5092561;28;20421;-68
2023/03/19 03:39:13;;;;;;;5.23;2.80;;;9.70;99.90;;;;;;5092023;28;20801;-68
2023/03/19 03:41:39;;;;;;;3.13;2.33;;;9.80;99.90;;;;;;5091858;28;20190;-68
2023/03/19 03:44:04;;;;;;;5.60;2.23;;;9.80;99.90;;;;;;5091845;28;20211;-69
2023/03/19 03:46:30;;;;;;;2.53;2.33;;;9.80;99.90;;;;;;5092232;28;20715;-68
2023/03/19 03:48:56;;;;;;;4.10;2.80;;;9.80;99.90;;;;;;5092563;28;20183;-68
2023/03/19 03:51:21;;;;;;;3.10;2.63;;;9.80;99.90;;;;;;5092482;28;20202;-68
2023/03/19 03:53:47;;;;;;;5.57;2.70;;;9.80;99.90;;;;;;5092442;28;20258;-68
2023/03/19 03:56:13;;;;;;;5.40;2.87;;;9.80;99.90;;;;;;5092251;28;20680;-68
2023/03/19 03:58:38;;;;;;;4.20;3.07;;;9.70;99.90;;;;;;5092193;28;20273;-68
2023/03/19 04:01:06;;;;;;;4.13;2.40;;;9.70;99.90;;;;;;5092194;28;20206;-68
2023/03/19 04:03:31;;;;;;;8.03;3.33;;;9.80;99.90;;;;;;5090754;28;20685;-68
2023/03/19 04:05:57;;;;;;;3.63;2.53;;;9.80;99.90;;;;;;5092095;28;20500;-67
2023/03/19 04:08:23;;;;;;;2.80;2.13;;;9.80;99.90;;;;;;5091871;28;20643;-68
2023/03/19 04:10:49;;;;;;;8.77;2.30;;;9.80;99.90;;;;;;5091215;28;20198;-68
2023/03/19 04:13:15;;;;;;;3.97;2.37;;;9.80;99.90;;;;;;5089154;28;20417;-68
2023/03/19 04:15:43;;;;;;;3.43;2.37;;;9.80;99.90;;;;;;5091108;28;20419;-68
2023/03/19 04:18:09;;;;;;;3.30;2.30;;;9.80;99.90;;;;;;5091157;28;20192;-68
2023/03/19 04:20:35;;;;;;;6.57;2.47;;;9.80;99.90;;;;;;5089680;28;20449;-68
2023/03/19 04:23:02;;;;;;;5.60;2.60;;;10.00;99.90;;;;;;5091208;28;20305;-68
2023/03/19 04:25:27;;;;;;;2.83;2.13;;;10.00;99.90;;;;;;5091061;28;20528;-68
2023/03/19 04:27:56;;;;;;;4.20;2.73;;;9.90;99.90;;;;;;5091151;28;20925;-68
2023/03/19 04:30:22;;;;;;;3.90;2.77;;;9.90;99.90;;;;;;5090827;28;20203;-67
2023/03/19 04:32:47;;;;;;;6.10;2.77;;;9.90;99.90;;;;;;5090944;28;20424;-69
2023/03/19 04:35:13;;;;;;;3.20;2.10;;;9.90;99.90;;;;;;5090911;28;20659;-69
2023/03/19 04:37:39;;;;;;;3.47;1.90;;;9.90;99.90;;;;;;5090726;28;20639;-68
2023/03/19 04:40:05;;;;;;;7.30;2.30;;;10.10;99.90;;;;;;5090843;28;20207;-68
2023/03/19 04:42:30;;;;;;;3.83;2.10;;;10.20;99.90;;;;;;5090994;28;20655;-68
2023/03/19 04:44:56;;;;;;;4.67;1.63;;;10.40;99.90;;;;;;5089309;28;20490;-68
2023/03/19 04:47:22;;;;;;;3.10;2.13;;;10.40;99.90;;;;;;5090651;28;20666;-68
2023/03/19 04:49:47;;;;;;;5.20;1.70;;;10.50;99.90;;;;;;5090435;28;20199;-68
2023/03/19 04:52:13;;;;;;;3.90;2.53;;;10.70;99.90;;;;;;5090505;28;20175;-67
2023/03/19 04:54:39;;;;;;;2.67;1.80;;;10.60;99.90;;;;;;5090717;28;20174;-68
2023/03/19 04:57:04;;;;;;;3.90;1.77;;;10.60;99.90;;;;;;5091610;28;20738;-69
2023/03/19 04:59:30;;;;;;;5.17;2.53;;;10.60;99.90;;;;;;5092048;28;20203;-68
2023/03/19 05:01:56;;;;;;;3.67;2.10;;;10.60;99.90;;;;;;5089369;28;20566;-68
2023/03/19 05:04:22;;;;;;;2.20;1.60;;;10.50;99.90;;;;;;5088804;28;20223;-68
2023/03/19 05:06:49;;;;;;;3.97;2.30;;;10.50;99.90;;;;;;5088686;28;20183;-68
2023/03/19 05:09:14;;;;;;;2.13;1.50;;;10.50;99.90;;;;;;5090129;28;20417;-68
2023/03/19 05:11:42;;;;;;;3.07;1.47;;;10.50;99.90;;;;;;5090170;28;20932;-68
2023/03/19 05:14:08;;;;;;;2.77;1.63;;;10.50;99.90;;;;;;5090125;28;20196;-67
2023/03/19 05:16:34;;;;;;;2.10;1.50;;;10.50;99.90;;;;;;5090689;28;20419;-68
2023/03/19 05:19:00;;;;;;;2.33;1.83;;;10.50;99.90;;;;;;5089380;28;20666;-68
2023/03/19 05:21:25;;;;;;;2.07;1.83;;;10.60;99.90;;;;;;5090657;28;20526;-68
2023/03/19 05:23:53;;;;;;;3.00;1.83;;;10.60;99.90;;;;;;5089058;28;20688;-68
2023/03/19 05:26:19;;;;;;;2.50;1.70;;;10.90;99.90;;;;;;5090349;28;20177;-67
2023/03/19 05:28:44;;;;;;;8.23;1.50;;;10.80;99.90;;;;;;5090106;28;20505;-67
2023/03/19 05:31:10;;;;;;;5.63;1.67;;;10.80;99.90;;;;;;5089888;28;20205;-68
2023/03/19 05:33:35;;;;;;;2.70;1.77;;;10.60;99.90;;;;;;5089885;28;20198;-68
2023/03/19 05:36:01;;;;;;;2.10;1.67;;;10.50;99.90;;;;;;5088641;28;20184;-68
2023/03/19 05:38:27;;;;;;;1.50;1.30;;;10.40;99.90;;;;;;5089452;28;20552;-68
2023/03/19 05:40:53;;;;;;;3.60;1.90;;;10.40;99.90;;;;;;5088108;28;20485;-68
2023/03/19 05:43:18;;;;;;;3.13;1.57;;;10.30;99.90;;;;;;5089552;28;20218;-68
2023/03/19 05:45:50;;;;;;;3.60;1.83;;;10.20;99.90;;;;;;5089458;28;20213;-68
2023/03/19 05:48:16;;;;;;;5.83;1.90;;;10.20;99.90;;;;;;5087948;28;20182;-68
2023/03/19 05:50:42;;;;;;;2.20;1.67;;;10.10;99.90;;;;;;5089371;28;20822;-68
2023/03/19 05:53:07;;;;;;;2.23;1.37;;;10.00;99.90;;;;;;5089313;28;20188;-68
2023/03/19 05:55:33;;;;;;;6.20;1.80;;;10.00;99.90;;;;;;5089274;28;20851;-68
2023/03/19 05:57:58;;;;;;;2.60;1.60;;;10.00;99.90;;;;;;5089276;28;20237;-68
2023/03/19 06:00:24;;;;;;;2.27;1.60;;;9.90;99.90;;;;;;5089600;28;20603;-68
2023/03/19 06:02:50;;;;;;;2.30;1.30;;;9.90;99.90;;;;;;5087928;28;20189;-68
2023/03/19 06:05:16;;;;;;;1.87;1.53;;;9.90;99.90;;;;;;5089186;28;20614;-68
2023/03/19 06:07:42;;;;;;;1.67;1.40;;;9.90;99.90;;;;;;5089222;28;20434;-68
2023/03/19 06:10:08;;;;;;;1.60;1.50;;;9.90;99.90;;;;;;5087435;28;20207;-69
2023/03/19 06:12:35;;;;;;;1.67;1.33;;;9.90;99.90;;;;;;5088999;28;20431;-69
2023/03/19 06:15:00;;;;;;;1.40;1.30;;;10.00;99.90;;;;;;5088972;28;20941;-68
2023/03/19 06:17:26;;;;;;;1.80;1.20;;;10.00;99.90;;;;;;5088893;28;20413;-68
2023/03/19 06:19:51;;;;;;;1.50;1.30;;;10.10;99.90;;;;;;5088837;28;20644;-68
2023/03/19 06:22:17;;;;;;;2.10;1.13;;;10.30;99.90;;;;;;5087259;28;20183;-68
2023/03/19 06:24:42;;;;;;;4.43;1.43;;;10.40;99.90;;;;;;5088651;28;20628;-68
2023/03/19 06:27:08;;;;;;;2.07;1.10;;;10.40;99.90;;;;;;5089232;28;20191;-68
2023/03/19 06:29:34;;;;;;;10.13;5.33;;;10.50;99.90;;;;;;5088571;28;20197;-68
2023/03/19 06:32:00;;;;;;;12.43;6.17;;;10.50;99.90;;;;;;5088707;28;20247;-68
2023/03/19 06:34:26;;;;;;;5.90;2.60;;;10.50;99.90;;;;;;5087163;28;20186;-68
2023/03/19 06:36:52;;;;;;;2.70;1.53;;;10.50;99.90;;;;;;5088145;28;20422;-68
2023/03/19 06:39:18;;;;;;;1.57;1.27;;;10.50;99.90;;;;;;5088516;28;20409;-69
2023/03/19 06:41:44;;;;;;;6.77;1.37;;;10.50;99.90;;;;;;5088542;28;20458;-68
2023/03/19 06:44:10;;;;;;;3.83;1.40;;;10.60;99.90;;;;;;5088490;28;20204;-68
2023/03/19 06:46:36;;;;;;;2.07;1.20;;;10.70;99.90;;;;;;5087208;28;20180;-68
2023/03/19 06:49:01;;;;;;;2.80;1.20;;;10.70;99.90;;;;;;5088523;28;20495;-68
2023/03/19 06:51:27;;;;;;;2.23;1.13;;;10.70;99.90;;;;;;5088518;28;20757;-67
2023/03/19 06:53:53;;;;;;;2.97;1.00;;;10.70;99.90;;;;;;5088648;28;20180;-68
2023/03/19 06:56:19;;;;;;;3.47;1.07;;;10.80;99.90;;;;;;5088945;28;20173;-68
2023/03/19 06:58:45;;;;;;;5.80;1.20;;;10.90;99.90;;;;;;5088594;28;20948;-68
2023/03/19 07:01:11;;;;;;;3.83;1.47;;;11.00;99.90;;;;;;5069851;28;20439;-68
2023/03/19 07:03:36;;;;;;;1.43;1.00;;;11.00;99.90;;;;;;5088478;28;20581;-68
2023/03/19 07:06:02;;;;;;;4.60;1.43;;;11.00;99.90;;;;;;5088346;28;20214;-68
2023/03/19 07:08:28;;;;;;;2.00;1.23;;;11.10;99.90;;;;;;5086924;28;20682;-68
2023/03/19 07:11:05;;;;;;;3.40;1.40;;;11.30;99.90;;;;;;5088469;28;20289;-69
2023/03/19 07:13:32;;;;;;;2.10;0.97;;;11.30;99.90;;;;;;5086831;28;20417;-68
2023/03/19 07:15:58;;;;;;;2.47;1.20;;;11.40;99.90;;;;;;5088367;28;20420;-68
2023/03/19 07:18:24;;;;;;;1.73;1.20;;;11.40;99.90;;;;;;5088244;28;20421;-69
2023/03/19 07:20:51;;;;;;;1.83;1.43;;;11.50;99.90;;;;;;5086447;28;20445;-68
2023/03/19 07:23:17;;;;;;;1.80;1.30;;;11.60;99.90;;;;;;5086694;28;20418;-68
2023/03/19 07:25:43;;;;;;;1.87;1.43;;;11.50;99.90;;;;;;5088122;28;20490;-68
2023/03/19 07:28:09;;;;;;;3.80;1.70;;;11.40;99.90;;;;;;5088247;28;20466;-68
2023/03/19 07:30:37;;;;;;;2.20;1.63;;;11.40;99.90;;;;;;5087981;28;20948;-69
2023/03/19 07:33:02;;;;;;;2.83;1.93;;;11.40;99.90;;;;;;5088097;28;20181;-68
2023/03/19 07:35:28;;;;;;;1.40;1.10;;;11.40;99.90;;;;;;5088131;28;20422;-68
2023/03/19 07:37:54;;;;;;;1.70;1.60;;;11.30;99.90;;;;;;5088072;28;20580;-68
2023/03/19 07:40:20;;;;;;;1.30;1.20;;;11.30;99.90;;;;;;5088235;28;20214;-68
2023/03/19 07:42:46;;;;;;;2.63;1.80;;;11.40;99.90;;;;;;5086407;28;20460;-68
2023/03/19 07:45:11;;;;;;;2.60;1.27;;;11.40;99.90;;;;;;5087792;28;20503;-68
2023/03/19 07:47:37;;;;;;;1.73;1.47;;;11.30;99.90;;;;;;5087997;28;20555;-68
2023/03/19 07:50:03;;;;;;;3.60;1.70;;;11.30;99.90;;;;;;5090163;28;20214;-68
2023/03/19 07:52:29;;;;;;;3.47;1.40;;;11.30;99.90;;;;;;5091778;28;20190;-68
2023/03/19 07:54:54;;;;;;;3.57;1.63;;;11.40;99.90;;;;;;5092021;28;20440;-68
2023/03/19 07:57:20;;;;;;;4.67;1.73;;;11.40;99.90;;;;;;5091764;28;20238;-68
2023/03/19 07:59:46;;;;;;;1.80;1.30;;;11.50;99.90;;;;;;5090228;28;20205;-69
2023/03/19 08:02:12;;;;;;;2.07;1.87;;;11.60;99.90;;;;;;5091653;28;20539;-69
2023/03/19 08:04:38;;;;;;;3.10;1.43;;;11.60;99.90;;;;;;5091424;28;20260;-69
2023/03/19 08:07:04;;;;;;;1.70;1.33;;;11.70;99.90;;;;;;5091413;28;20493;-69
2023/03/19 08:09:29;;;;;;;4.47;1.80;;;11.70;99.90;;;;;;5090019;28;20937;-69
2023/03/19 08:11:55;;;;;;;2.83;1.70;;;11.80;99.90;;;;;;5091165;28;20184;-68
2023/03/19 08:14:21;;;;;;;7.07;1.90;;;11.80;99.90;;;;;;5091208;28;20192;-68
2023/03/19 08:16:48;;;;;;;8.03;1.93;;;11.70;99.90;;;;;;5091125;28;20186;-68
2023/03/19 08:19:13;;;;;;;4.50;1.90;;;11.80;99.90;;;;;;5090935;28;20935;-68
2023/03/19 08:21:39;;;;;;;3.80;1.93;;;11.80;99.90;;;;;;5091060;28;20417;-68
2023/03/19 08:24:05;;;;;;;3.00;1.73;;;11.80;99.90;;;;;;5091205;28;20210;-68
2023/03/19 08:26:31;;;;;;;3.43;1.30;;;11.80;99.90;;;;;;5091163;28;20249;-68
2023/03/19 08:28:57;;;;;;;2.33;1.80;;;11.80;99.90;;;;;;5090919;28;20422;-68
2023/03/19 08:31:23;;;;;;;2.33;1.50;;;11.90;99.90;;;;;;5090800;28;20436;-68
2023/03/19 08:33:49;;;;;;;2.50;1.53;;;12.00;99.90;;;;;;5091162;28;20475;-67
2023/03/19 08:36:15;;;;;;;2.90;1.77;;;12.10;99.90;;;;;;5091155;28;20187;-69
2023/03/19 08:38:41;;;;;;;2.07;1.27;;;12.10;99.90;;;;;;5090812;28;20193;-69
2023/03/19 08:41:08;;;;;;;5.40;1.90;;;12.20;99.90;;;;;;5090639;28;20516;-68
2023/03/19 08:43:35;;;;;;;5.43;1.37;;;12.40;99.90;;;;;;5089278;28;20419;-68
2023/03/19 08:46:01;;;;;;;2.17;1.43;;;12.50;99.90;;;;;;5090378;28;20496;-69
2023/03/19 08:48:27;;;;;;;2.00;1.47;;;12.70;99.90;;;;;;5088033;28;20818;-69
2023/03/19 08:50:55;;;;;;;6.00;1.40;;;13.00;99.90;;;;;;5090355;28;20440;-69
2023/03/19 08:53:22;;;;;;;5.93;1.50;;;13.00;99.90;;;;;;5090345;28;20805;-68
2023/03/19 08:56:00;;;;;;;1.70;1.60;;;13.30;99.90;;;;;;5087612;28;20416;-69
2023/03/19 08:58:26;;;;;;;3.23;1.50;;;13.40;99.90;;;;;;5089110;28;20520;-69
2023/03/19 09:00:52;;;;;;;2.27;1.47;;;13.40;99.60;;;;;;5088571;28;20439;-68
2023/03/19 09:03:19;;;;;;;5.80;2.97;;;13.80;99.90;;;;;;5088916;28;20418;-68
2023/03/19 09:05:45;;;;;;;2.93;1.60;;;14.20;98.40;;;;;;5089095;28;20543;-69
2023/03/19 09:08:11;;;;;;;4.57;1.60;;;14.50;98.80;;;;;;5088961;28;20411;-69
2023/03/19 09:10:37;;;;;;;2.70;1.70;;;14.70;96.20;;;;;;5087140;28;20455;-68
2023/03/19 09:13:03;;;;;;;3.07;1.90;;;15.00;95.80;;;;;;5088728;28;20416;-68
2023/03/19 09:15:28;;;;;;;2.30;1.50;;;15.30;96.20;;;;;;5088808;28;20469;-68
2023/03/19 09:17:54;;;;;;;5.33;2.07;;;15.20;94.90;;;;;;5087218;28;20420;-69
2023/03/19 09:20:20;;;;;;;2.20;1.43;;;15.20;94.90;;;;;;5088397;28;20679;-69
2023/03/19 09:22:46;;;;;;;3.53;1.63;;;15.20;95.20;;;;;;5088830;28;20413;-69
2023/03/19 09:25:12;;;;;;;3.07;1.77;;;15.90;94.60;;;;;;5088526;28;20460;-68
2023/03/19 09:27:37;;;;;;;3.67;1.50;;;16.40;94.50;;;;;;5088459;28;20206;-69
2023/03/19 09:30:04;;;;;;;4.17;1.87;;;17.10;94.30;;;;;;5088505;28;20202;-69
2023/03/19 09:32:29;;;;;;;5.40;1.60;;;17.00;91.30;;;;;;5086870;28;20186;-69
2023/03/19 09:34:55;;;;;;;3.70;1.63;;;17.10;88.30;;;;;;5088312;28;20432;-69
2023/03/19 09:37:21;;;;;;;2.80;1.90;;;17.30;86.70;;;;;;5088084;28;20675;-69
2023/03/19 09:39:46;;;;;;;2.13;1.90;;;17.50;90.20;;;;;;5088058;28;20214;-70
2023/03/19 09:42:38;;;;;;;2.37;1.63;;;18.10;90.20;;;;;;5088531;28;20615;-69
2023/03/19 09:45:08;;;;;;;3.17;1.80;;;18.70;84.30;;;;;;5088700;28;20228;-69
2023/03/19 09:47:36;;;;;;;2.10;1.53;;;19.20;83.20;;;;;;5088507;28;21161;-70
2023/03/19 09:50:17;;;;;;;7.80;2.47;;;19.20;80.00;;;;;;5088768;28;20457;-70
2023/03/19 09:52:48;;;;;;;4.03;1.70;;;18.20;78.30;;;;;;5088951;28;20397;-69
2023/03/19 09:55:19;;;;;;;3.30;1.53;;;19.30;77.50;;;;;;5088644;28;20439;-70
2023/03/19 09:57:47;;;;;;;2.33;1.80;;;19.70;74.00;;;;;;5087976;28;20483;-70
2023/03/19 10:00:35;;;;;;;6.90;2.10;;;18.90;73.20;;;;;;5087831;28;20436;-70
2023/03/19 10:03:13;;;;;;;3.67;2.20;;;18.40;74.60;;;;;;5088006;28;20484;-69
2023/03/19 10:06:25;;;;;;;4.70;2.27;;;18.00;75.80;;;;;;5087815;28;20502;-70
2023/03/19 10:09:19;;;;;;;4.03;1.60;;;18.30;75.40;;;;;;5073450;28;20956;-70
2023/03/19 10:12:05;;;;;;;2.37;1.73;;;18.70;72.50;;;;;;5087416;28;20437;-69
2023/03/19 10:14:45;;;;;;;2.83;1.90;;;19.50;71.30;;;;;;5087826;28;20412;-70
2023/03/19 10:17:26;;;;;;;3.70;1.90;;;19.70;70.00;;;;;;5088083;28;20412;-69
2023/03/19 10:19:57;;;;;;;7.53;1.90;;;20.30;66.90;;;;;;5088083;28;20958;-70
2023/03/19 10:22:29;;;;;;;2.50;1.70;;;20.50;65.80;;;;;;5088310;28;20416;-69
2023/03/19 10:24:57;;;;;;;3.83;1.93;;;19.90;65.10;;;;;;5088363;28;20509;-70
2023/03/19 10:27:27;;;;;;;5.13;1.87;;;19.80;61.40;;;;;;5088054;28;20440;-69
2023/03/19 10:29:53;;;;;;;5.70;2.10;;;19.60;66.00;;;;;;5086022;28;20444;-70
2023/03/19 10:32:33;;;;;;;4.50;2.50;;;20.70;64.90;;;;;;5087413;28;20419;-70
2023/03/19 10:35:05;;;;;;;3.47;2.03;;;21.20;62.80;;;;;;5086155;28;21110;-70
2023/03/19 10:37:34;;;;;;;3.80;2.17;;;21.50;62.50;;;;;;5087086;28;20452;-69
2023/03/19 10:40:00;;;;;;;2.30;1.67;;;21.80;62.70;;;;;;5087090;28;20447;-70
2023/03/19 10:43:16;;;;;;;4.20;1.77;;;22.00;61.60;;;;;;5087215;28;20888;-69
2023/03/19 10:45:42;;;;;;;2.83;1.83;;;22.00;57.80;;;;;;5041754;28;20505;-70
2023/03/19 10:48:14;;;;;;;5.30;2.13;;;21.00;57.70;;;;;;5087401;28;20429;-69
2023/03/19 10:50:51;;;;;;;8.63;2.37;;;21.00;57.60;;;;;;5087324;28;20242;-68
2023/03/19 10:53:17;;;;;;;3.80;2.00;;;21.60;60.30;;;;;;5085697;28;20478;-69
2023/03/19 10:55:52;;;;;;;6.90;3.40;;;21.20;57.20;;;;;;5087150;28;20408;-70
2023/03/19 10:58:25;;;;;;;3.77;2.30;;;21.30;59.30;;;;;;5087398;28;20174;-69
2023/03/19 11:01:05;;;;;;;3.30;1.97;;;21.10;57.50;;;;;;5086997;28;20857;-70
2023/03/19 11:03:33;;;;;;;5.20;2.63;;;20.80;57.40;;;;;;5087128;28;20463;-70
2023/03/19 11:06:18;;;;;;;5.80;2.30;;;20.80;58.50;;;;;;5086851;28;20976;-70
2023/03/19 11:08:57;;;;;;;4.43;2.13;;;20.90;59.70;;;;;;5087109;28;20400;-70
2023/03/19 11:11:25;;;;;;;3.33;2.30;;;19.80;58.20;;;;;;5086573;28;20427;-70
2023/03/19 11:13:51;;;;;;;4.83;2.40;;;19.60;59.90;;;;;;5086830;28;20408;-70
2023/03/19 11:16:16;;;;;;;4.13;2.03;;;19.80;61.90;;;;;;5086836;28;20438;-70
2023/03/19 11:18:47;;;;;;;4.03;1.97;;;19.80;61.30;;;;;;5086961;28;20435;-69
2023/03/19 11:21:29;;;;;;;4.37;2.27;;;20.10;61.50;;;;;;5086967;28;20715;-73
2023/03/19 11:24:03;;;;;;;4.40;1.50;;;20.60;60.20;;;;;;5089359;28;20467;-73
2023/03/19 11:26:29;;;;;;;4.50;1.90;;;20.80;59.70;;;;;;5091364;28;20458;-73
2023/03/19 11:29:01;;;;;;;4.70;2.13;;;20.50;58.30;;;;;;5090970;28;20497;-73
2023/03/19 11:31:35;;;;;;;4.70;1.50;;;20.80;62.10;;;;;;5091038;28;20414;-72
2023/03/19 11:34:04;;;;;;;5.53;2.10;;;20.80;62.00;;;;;;5090547;28;20440;-73
2023/03/19 11:36:50;;;;;;;4.40;1.70;;;20.10;58.30;;;;;;5090481;28;20412;-74
2023/03/19 11:39:34;;;;;;;3.43;2.40;;;20.00;62.00;;;;;;5090440;28;20495;-73
2023/03/19 11:42:27;;;;;;;6.27;2.30;;;19.80;63.30;;;;;;5090400;28;20404;-73
2023/03/19 11:45:24;;;;;;;3.87;2.10;;;19.40;62.30;;;;;;5088658;28;20518;-74
2023/03/19 11:47:53;;;;;;;3.63;2.30;;;19.10;63.90;;;;;;5090593;28;20422;-73
2023/03/19 11:50:56;;;;;;;5.70;2.47;;;18.90;65.20;;;;;;5090081;28;20486;-73
2023/03/19 11:53:35;;;;;;;8.33;2.33;;;18.60;64.90;;;;;;5090118;28;20446;-73
2023/03/19 11:56:38;;;;;;;5.67;1.93;;;18.40;63.40;;;;;;5088478;28;20437;-73
2023/03/19 11:59:24;;;;;;;6.20;2.43;;;18.30;66.80;;;;;;5089886;28;20416;-72
2023/03/19 12:01:58;;;;;;;4.43;1.97;;;18.20;66.50;;;;;;5088293;28;20434;-72
2023/03/19 12:04:53;;;;;;;6.20;1.93;;;18.20;66.10;;;;;;5089896;28;20457;-72
2023/03/19 12:07:29;;;;;;;2.77;1.93;;;18.20;66.10;;;;;;5088240;28;20422;-72
2023/03/19 12:10:29;;;;;;;1.97;1.73;;;18.20;66.40;;;;;;5088052;28;20496;-72
2023/03/19 12:13:07;;;;;;;3.43;2.13;;;18.20;64.80;;;;;;5088258;28;20792;-72
2023/03/19 12:16:10;;;;;;;8.00;2.33;;;18.10;62.60;;;;;;5089744;28;20427;-71
2023/03/19 12:18:46;;;;;;;1.80;1.60;;;18.40;63.00;;;;;;5089736;28;20412;-72
2023/03/19 12:21:28;;;;;;;3.37;1.80;;;18.90;60.90;;;;;;5089642;28;20951;-72
2023/03/19 12:24:10;;;;;;;4.43;1.80;;;18.70;62.30;;;;;;5089316;28;20441;-72
2023/03/19 12:27:06;;;;;;;3.60;1.87;;;18.60;62.20;;;;;;5089682;28;20434;-72
2023/03/19 12:29:35;;;;;;;4.30;1.83;;;18.50;60.40;;;;;;5089562;28;20472;-73
2023/03/19 12:32:04;;;;;;;9.90;2.10;;;18.70;61.50;;;;;;5087768;28;20438;-73
2023/03/19 12:34:44;;;;;;;2.20;1.20;;;19.30;62.90;;;;;;5086876;28;20484;-73
2023/03/19 12:37:20;;;;;;;5.50;2.10;;;19.80;60.00;;;;;;5089469;28;20439;-72
2023/03/19 12:40:14;;;;;;;6.07;2.00;;;19.80;59.30;;;;;;5089254;28;20435;-74
2023/03/19 12:42:40;;;;;;;3.77;1.57;;;20.30;59.90;;;;;;5088052;28;20427;-74
2023/03/19 12:45:28;;;;;;;2.50;2.00;;;20.80;59.10;;;;;;5089449;28;20464;-73
2023/03/19 12:48:03;;;;;;;3.77;1.80;;;21.00;57.20;;;;;;5087404;28;20529;-73
2023/03/19 12:50:31;;;;;;;2.40;1.50;;;21.00;58.50;;;;;;5089535;28;20420;-73
2023/03/19 12:53:00;;;;;;;5.30;2.20;;;20.80;59.40;;;;;;5089005;28;20403;-73
2023/03/19 12:55:43;;;;;;;5.23;1.73;;;20.60;57.90;;;;;;5087323;28;20426;-73
2023/03/19 12:58:36;;;;;;;2.70;1.40;;;20.00;56.60;;;;;;5088894;28;20848;-72
2023/03/19 13:01:09;;;;;;;2.33;1.50;;;19.40;58.60;;;;;;5088682;28;20953;-72
2023/03/19 13:03:56;;;;;;;4.50;1.90;;;18.90;60.00;;;;;;5088817;28;21063;-74